sensor_id;sensor_type;location;lat;lon;timestamp;pressure;altitude;pressure_sealevel;temperature;humidity
52319;BME280;38258;51.148;14.068;2023-02-03T00:01:33;98906.16;;;-0.94;100.00
52319;BME280;38258;51.148;14.068;2023-02-03T00:04:00;98956.53;;;-0.67;100.00
52319;BME280;38258;51.148;14.068;2023-02-03T00:06:26;98956.56;;;-0.65;100.00
52319;BME280;38258;51.148;14.068;2023-02-03T00:08:54;98959.84;;;-0.71;100.00
52319;BME280;38258;51.148;14.068;2023-02-03T00:11:23;98952.97;;;-0.72;100.00
52319;BME280;38258;51.148;14.068;2023-02-03T00:13:49;98951.31;;;-0.70;100.00
52319;BME280;38258;51.148;14.068;2023-02-03T00:16:17;98957.28;;;-0.71;100.00
52319;BME280;38258;51.148;14.068;2023-02-03T00:18:43;98955.47;;;-0.75;100.00
52319;BME280;38258;51.148;14.068;2023-02-03T00:21:10;98945.13;;;-0.78;100.00
52319;BME280;38258;51.148;14.068;2023-02-03T00:23:38;98902.41;;;-1.07;100.00
52319;BME280;38258;51.148;14.068;2023-02-03T00:26:06;98944.03;;;-0.87;100.00
52319;BME280;38258;51.148;14.068;2023-02-03T00:28:33;98916.41;;;-0.95;100.00
52319;BME280;38258;51.148;14.068;2023-02-03T00:30:59;98920.72;;;-0.94;100.00
52319;BME280;38258;51.148;14.068;2023-02-03T00:33:27;98905.38;;;-0.93;100.00
52319;BME280;38258;51.148;14.068;2023-02-03T00:35:54;98915.75;;;-0.88;100.00
52319;BME280;38258;51.148;14.068;2023-02-03T00:38:21;98918.34;;;-0.53;100.00
52319;BME280;38258;51.148;14.068;2023-02-03T00:40:52;98913.16;;;-0.54;100.00
52319;BME280;38258;51.148;14.068;2023-02-03T00:43:19;98913.31;;;-0.48;100.00
52319;BME280;38258;51.148;14.068;2023-02-03T00:45:46;98912.31;;;-0.53;100.00
52319;BME280;38258;51.148;14.068;2023-02-03T00:48:13;98901.16;;;-0.55;100.00
52319;BME280;38258;51.148;14.068;2023-02-03T00:50:40;98894.31;;;-0.55;100.00
52319;BME280;38258;51.148;14.068;2023-02-03T00:53:07;98906.53;;;-0.45;100.00
52319;BME280;38258;51.148;14.068;2023-02-03T00:55:33;98903.19;;;-0.42;100.00
52319;BME280;38258;51.148;14.068;2023-02-03T00:58:00;98880.34;;;-0.30;100.00
52319;BME280;38258;51.148;14.068;2023-02-03T01:00:26;98879.56;;;-0.25;100.00
52319;BME280;38258;51.148;14.068;2023-02-03T01:02:54;98898.56;;;-0.20;100.00
52319;BME280;38258;51.148;14.068;2023-02-03T01:05:21;98881.56;;;-0.13;100.00
52319;BME280;38258;51.148;14.068;2023-02-03T01:07:49;98866.94;;;-0.15;100.00
52319;BME280;38258;51.148;14.068;2023-02-03T01:10:15;98854.97;;;-0.14;100.00
52319;BME280;38258;51.148;14.068;2023-02-03T01:12:42;98855.25;;;-0.02;100.00
52319;BME280;38258;51.148;14.068;2023-02-03T01:15:09;98855.25;;;-0.02;100.00
52319;BME280;38258;51.148;14.068;2023-02-03T01:17:36;98803.13;;;-0.34;100.00
52319;BME280;38258;51.148;14.068;2023-02-03T01:20:03;98834.50;;;-0.09;100.00
52319;BME280;38258;51.148;14.068;2023-02-03T01:22:30;98832.06;;;-0.05;100.00
52319;BME280;38258;51.148;14.068;2023-02-03T01:24:58;98812.97;;;-0.15;100.00
52319;BME280;38258;51.148;14.068;2023-02-03T01:27:24;98825.91;;;-0.11;100.00
52319;BME280;38258;51.148;14.068;2023-02-03T01:29:51;98807.81;;;-0.16;100.00
52319;BME280;38258;51.148;14.068;2023-02-03T01:32:18;98812.94;;;-0.16;100.00
52319;BME280;38258;51.148;14.068;2023-02-03T01:34:44;98809.59;;;-0.12;100.00
52319;BME280;38258;51.148;14.068;2023-02-03T01:37:10;98795.06;;;-0.10;100.00
52319;BME280;38258;51.148;14.068;2023-02-03T01:39:38;98787.03;;;-0.25;100.00
52319;BME280;38258;51.148;14.068;2023-02-03T01:42:08;98777.72;;;-0.20;100.00
52319;BME280;38258;51.148;14.068;2023-02-03T01:44:40;98775.00;;;-0.28;100.00
52319;BME280;38258;51.148;14.068;2023-02-03T01:47:15;98780.97;;;-0.27;100.00
52319;BME280;38258;51.148;14.068;2023-02-03T01:49:48;98777.31;;;-0.39;100.00
52319;BME280;38258;51.148;14.068;2023-02-03T01:52:18;98790.25;;;-0.36;100.00
52319;BME280;38258;51.148;14.068;2023-02-03T01:54:47;98778.31;;;-0.32;100.00
52319;BME280;38258;51.148;14.068;2023-02-03T01:57:19;98786.06;;;-0.31;100.00
52319;BME280;38258;51.148;14.068;2023-02-03T01:59:48;98771.16;;;-0.47;100.00
52319;BME280;38258;51.148;14.068;2023-02-03T02:02:15;98766.13;;;-0.43;100.00
52319;BME280;38258;51.148;14.068;2023-02-03T02:04:50;98761.66;;;-0.50;100.00
52319;BME280;38258;51.148;14.068;2023-02-03T02:07:19;98756.41;;;-0.56;100.00
52319;BME280;38258;51.148;14.068;2023-02-03T02:09:45;98751.31;;;-0.53;100.00
52319;BME280;38258;51.148;14.068;2023-02-03T02:12:13;98748.75;;;-0.53;100.00
52319;BME280;38258;51.148;14.068;2023-02-03T02:14:41;98736.63;;;-0.59;100.00
52319;BME280;38258;51.148;14.068;2023-02-03T02:17:16;98696.72;;;-0.82;100.00
52319;BME280;38258;51.148;14.068;2023-02-03T02:20:19;98732.44;;;-0.53;100.00
52319;BME280;38258;51.148;14.068;2023-02-03T02:23:06;98718.25;;;-0.77;100.00
52319;BME280;38258;51.148;14.068;2023-02-03T02:25:55;98737.41;;;-0.63;100.00
52319;BME280;38258;51.148;14.068;2023-02-03T02:31:47;98726.13;;;-0.68;100.00
52319;BME280;38258;51.148;14.068;2023-02-03T02:34:23;98706.25;;;-0.77;100.00
52319;BME280;38258;51.148;14.068;2023-02-03T02:37:00;98703.00;;;-0.69;100.00
52319;BME280;38258;51.148;14.068;2023-02-03T02:39:35;98698.53;;;-0.77;100.00
52319;BME280;38258;51.148;14.068;2023-02-03T02:42:06;98687.25;;;-0.85;100.00
52319;BME280;38258;51.148;14.068;2023-02-03T02:44:37;98670.13;;;-0.84;100.00
52319;BME280;38258;51.148;14.068;2023-02-03T02:47:09;98640.75;;;-0.97;100.00
52319;BME280;38258;51.148;14.068;2023-02-03T02:49:44;98665.78;;;-0.87;100.00
52319;BME280;38258;51.148;14.068;2023-02-03T02:52:14;98652.72;;;-0.98;100.00
52319;BME280;38258;51.148;14.068;2023-02-03T02:54:47;98649.47;;;-0.89;100.00
52319;BME280;38258;51.148;14.068;2023-02-03T02:57:17;98660.84;;;-0.78;100.00
52319;BME280;38258;51.148;14.068;2023-02-03T02:59:45;98652.22;;;-0.81;100.00
52319;BME280;38258;51.148;14.068;2023-02-03T03:02:14;98635.06;;;-0.84;100.00
52319;BME280;38258;51.148;14.068;2023-02-03T03:04:42;98583.22;;;-1.06;100.00
52319;BME280;38258;51.148;14.068;2023-02-03T03:07:14;98607.84;;;-0.74;100.00
52319;BME280;38258;51.148;14.068;2023-02-03T03:09:44;98605.34;;;-0.71;100.00
52319;BME280;38258;51.148;14.068;2023-02-03T03:12:14;98605.28;;;-0.73;100.00
52319;BME280;38258;51.148;14.068;2023-02-03T03:14:45;98600.94;;;-0.78;100.00
52319;BME280;38258;51.148;14.068;2023-02-03T03:17:19;98590.91;;;-0.64;100.00
52319;BME280;38258;51.148;14.068;2023-02-03T03:19:53;98596.09;;;-0.61;100.00
52319;BME280;38258;51.148;14.068;2023-02-03T03:22:24;98582.47;;;-0.59;100.00
52319;BME280;38258;51.148;14.068;2023-02-03T03:24:55;98579.09;;;-0.56;100.00
52319;BME280;38258;51.148;14.068;2023-02-03T03:27:25;98565.41;;;-0.53;100.00
52319;BME280;38258;51.148;14.068;2023-02-03T03:29:56;98575.78;;;-0.49;100.00
52319;BME280;38258;51.148;14.068;2023-02-03T03:32:25;98585.38;;;-0.40;100.00
52319;BME280;38258;51.148;14.068;2023-02-03T03:34:55;98575.13;;;-0.38;100.00
52319;BME280;38258;51.148;14.068;2023-02-03T03:37:29;98574.25;;;-0.39;100.00
52319;BME280;38258;51.148;14.068;2023-02-03T03:39:59;98569.25;;;-0.33;100.00
52319;BME280;38258;51.148;14.068;2023-02-03T03:42:30;98568.19;;;-0.44;100.00
52319;BME280;38258;51.148;14.068;2023-02-03T03:45:03;98582.00;;;-0.37;100.00
52319;BME280;38258;51.148;14.068;2023-02-03T03:47:34;98569.25;;;-0.33;100.00
52319;BME280;38258;51.148;14.068;2023-02-03T03:50:05;98532.84;;;-0.54;100.00
52319;BME280;38258;51.148;14.068;2023-02-03T03:52:35;98559.84;;;-0.31;100.00
52319;BME280;38258;51.148;14.068;2023-02-03T03:55:04;98548.81;;;-0.23;100.00
52319;BME280;38258;51.148;14.068;2023-02-03T03:57:36;98539.25;;;-0.32;100.00
52319;BME280;38258;51.148;14.068;2023-02-03T04:00:07;98540.22;;;-0.25;100.00
52319;BME280;38258;51.148;14.068;2023-02-03T04:02:41;98531.94;;;-0.09;100.00
52319;BME280;38258;51.148;14.068;2023-02-03T04:05:12;98530.19;;;-0.11;100.00
52319;BME280;38258;51.148;14.068;2023-02-03T04:07:41;98481.16;;;-0.22;100.00
52319;BME280;38258;51.148;14.068;2023-02-03T04:10:15;98504.00;;;0.13;100.00
52319;BME280;38258;51.148;14.068;2023-02-03T04:12:43;98485.84;;;0.02;100.00
52319;BME280;38258;51.148;14.068;2023-02-03T04:15:09;98462.16;;;0.23;100.00
52319;BME280;38258;51.148;14.068;2023-02-03T04:17:36;98469.13;;;0.34;100.00
52319;BME280;38258;51.148;14.068;2023-02-03T04:20:04;98469.41;;;0.52;100.00
52319;BME280;38258;51.148;14.068;2023-02-03T04:22:31;98464.25;;;0.54;100.00
52319;BME280;38258;51.148;14.068;2023-02-03T04:24:57;98475.75;;;0.81;100.00
52319;BME280;38258;51.148;14.068;2023-02-03T04:27:24;98470.00;;;1.02;100.00
52319;BME280;38258;51.148;14.068;2023-02-03T04:29:50;98463.25;;;1.13;100.00
52319;BME280;38258;51.148;14.068;2023-02-03T04:32:17;98455.59;;;1.21;100.00
52319;BME280;38258;51.148;14.068;2023-02-03T04:34:44;98448.94;;;1.44;100.00
52319;BME280;38258;51.148;14.068;2023-02-03T04:37:12;98430.03;;;1.43;100.00
52319;BME280;38258;51.148;14.068;2023-02-03T04:39:39;98434.44;;;1.55;100.00
52319;BME280;38258;51.148;14.068;2023-02-03T04:42:06;98408.69;;;1.58;100.00
52319;BME280;38258;51.148;14.068;2023-02-03T04:44:32;98446.81;;;2.00;100.00
52319;BME280;38258;51.148;14.068;2023-02-03T04:46:59;98429.66;;;2.06;100.00
52319;BME280;38258;51.148;14.068;2023-02-03T04:49:25;98436.63;;;2.18;100.00
52319;BME280;38258;51.148;14.068;2023-02-03T04:51:52;98434.09;;;2.29;100.00
52319;BME280;38258;51.148;14.068;2023-02-03T04:54:19;98436.69;;;2.28;100.00
52319;BME280;38258;51.148;14.068;2023-02-03T04:56:46;98421.28;;;2.40;100.00
52319;BME280;38258;51.148;14.068;2023-02-03T04:59:13;98449.75;;;2.56;100.00
52319;BME280;38258;51.148;14.068;2023-02-03T05:01:39;98437.66;;;2.53;100.00
52319;BME280;38258;51.148;14.068;2023-02-03T05:04:05;98429.09;;;2.59;100.00
52319;BME280;38258;51.148;14.068;2023-02-03T05:06:33;98416.16;;;2.56;100.00
52319;BME280;38258;51.148;14.068;2023-02-03T05:08:59;98438.59;;;2.64;100.00
52319;BME280;38258;51.148;14.068;2023-02-03T05:11:27;98411.97;;;2.86;100.00
52319;BME280;38258;51.148;14.068;2023-02-03T05:13:54;98410.25;;;2.88;100.00
52319;BME280;38258;51.148;14.068;2023-02-03T05:16:21;98418.00;;;2.81;100.00
52319;BME280;38258;51.148;14.068;2023-02-03T05:18:48;98424.91;;;2.89;100.00
52319;BME280;38258;51.148;14.068;2023-02-03T05:21:14;98408.50;;;2.82;100.00
52319;BME280;38258;51.148;14.068;2023-02-03T05:23:41;98401.59;;;2.76;100.00
52319;BME280;38258;51.148;14.068;2023-02-03T05:26:08;98413.75;;;3.02;100.00
52319;BME280;38258;51.148;14.068;2023-02-03T05:28:36;98400.78;;;2.93;100.00
52319;BME280;38258;51.148;14.068;2023-02-03T05:31:03;98402.53;;;3.00;100.00
52319;BME280;38258;51.148;14.068;2023-02-03T05:33:29;98400.84;;;3.04;100.00
52319;BME280;38258;51.148;14.068;2023-02-03T05:35:56;98392.22;;;3.05;100.00
52319;BME280;38258;51.148;14.068;2023-02-03T05:38:23;98386.19;;;3.09;100.00
52319;BME280;38258;51.148;14.068;2023-02-03T05:40:51;98344.78;;;2.73;100.00
52319;BME280;38258;51.148;14.068;2023-02-03T05:43:36;98391.38;;;3.14;100.00
52319;BME280;38258;51.148;14.068;2023-02-03T05:46:04;98383.63;;;3.20;100.00
52319;BME280;38258;51.148;14.068;2023-02-03T05:48:32;98385.31;;;3.13;100.00
52319;BME280;38258;51.148;14.068;2023-02-03T05:50:58;98343.94;;;2.90;100.00
52319;BME280;38258;51.148;14.068;2023-02-03T05:53:26;98343.94;;;2.82;100.00
52319;BME280;38258;51.148;14.068;2023-02-03T05:55:53;98311.19;;;2.73;100.00
52319;BME280;38258;51.148;14.068;2023-02-03T05:58:20;98338.78;;;3.01;100.00
52319;BME280;38258;51.148;14.068;2023-02-03T06:00:48;98322.41;;;2.83;100.00
52319;BME280;38258;51.148;14.068;2023-02-03T06:03:14;98285.38;;;2.67;100.00
52319;BME280;38258;51.148;14.068;2023-02-03T06:05:41;98291.41;;;2.75;100.00
52319;BME280;38258;51.148;14.068;2023-02-03T06:08:09;98306.91;;;2.94;100.00
52319;BME280;38258;51.148;14.068;2023-02-03T06:10:36;98287.09;;;2.90;100.00
52319;BME280;38258;51.148;14.068;2023-02-03T06:13:13;98309.50;;;3.03;100.00
52319;BME280;38258;51.148;14.068;2023-02-03T06:15:40;98368.13;;;3.37;100.00
52319;BME280;38258;51.148;14.068;2023-02-03T06:18:09;98309.53;;;3.08;100.00
52319;BME280;38258;51.148;14.068;2023-02-03T06:20:45;98224.22;;;2.71;100.00
52319;BME280;38258;51.148;14.068;2023-02-03T06:23:12;98251.78;;;2.79;100.00
52319;BME280;38258;51.148;14.068;2023-02-03T06:25:38;98269.88;;;3.07;100.00
52319;BME280;38258;51.148;14.068;2023-02-03T06:28:05;98269.88;;;3.07;100.00
52319;BME280;38258;51.148;14.068;2023-02-03T06:30:32;98300.91;;;3.29;100.00
52319;BME280;38258;51.148;14.068;2023-02-03T06:32:58;98344.84;;;3.51;100.00
52319;BME280;38258;51.148;14.068;2023-02-03T06:35:26;98337.97;;;3.51;100.00
52319;BME280;38258;51.148;14.068;2023-02-03T06:37:53;98257.84;;;3.02;100.00
52319;BME280;38258;51.148;14.068;2023-02-03T06:40:20;98342.25;;;3.57;100.00
52319;BME280;38258;51.148;14.068;2023-02-03T06:42:47;98269.91;;;3.18;100.00
52319;BME280;38258;51.148;14.068;2023-02-03T06:45:15;98312.97;;;3.52;100.00
52319;BME280;38258;51.148;14.068;2023-02-03T06:47:43;98350.03;;;3.66;100.00
52319;BME280;38258;51.148;14.068;2023-02-03T06:50:13;98232.00;;;3.13;100.00
52319;BME280;38258;51.148;14.068;2023-02-03T06:52:42;98282.78;;;3.52;100.00
52319;BME280;38258;51.148;14.068;2023-02-03T06:55:09;98302.59;;;3.67;100.00
52319;BME280;38258;51.148;14.068;2023-02-03T06:57:42;98301.72;;;3.76;100.00
52319;BME280;38258;51.148;14.068;2023-02-03T07:00:10;98253.50;;;3.52;100.00
52319;BME280;38258;51.148;14.068;2023-02-03T07:02:37;98146.75;;;2.88;100.00
52319;BME280;38258;51.148;14.068;2023-02-03T07:05:05;98165.72;;;2.88;100.00
52319;BME280;38258;51.148;14.068;2023-02-03T07:07:32;98200.09;;;3.26;100.00
52319;BME280;38258;51.148;14.068;2023-02-03T07:10:00;98286.19;;;3.79;100.00
52319;BME280;38258;51.148;14.068;2023-02-03T07:12:27;98225.88;;;3.60;100.00
52319;BME280;38258;51.148;14.068;2023-02-03T07:14:53;98265.47;;;3.89;100.00
52319;BME280;38258;51.148;14.068;2023-02-03T07:17:20;98148.44;;;3.10;100.00
52319;BME280;38258;51.148;14.068;2023-02-03T07:19:47;98132.06;;;3.10;100.00
52319;BME280;38258;51.148;14.068;2023-02-03T07:22:13;98271.50;;;3.88;100.00
52319;BME280;38258;51.148;14.068;2023-02-03T07:24:40;98276.63;;;3.92;100.00
52319;BME280;38258;51.148;14.068;2023-02-03T07:27:08;98272.34;;;3.91;100.00
52319;BME280;38258;51.148;14.068;2023-02-03T07:29:34;98270.59;;;3.96;100.00
52319;BME280;38258;51.148;14.068;2023-02-03T07:32:01;98250.81;;;3.81;100.00
52319;BME280;38258;51.148;14.068;2023-02-03T07:34:28;98280.06;;;3.94;100.00
52319;BME280;38258;51.148;14.068;2023-02-03T07:36:55;98275.78;;;3.92;100.00
52319;BME280;38258;51.148;14.068;2023-02-03T07:39:22;98278.34;;;3.93;100.00
52319;BME280;38258;51.148;14.068;2023-02-03T07:41:48;98247.38;;;3.70;100.00
52319;BME280;38258;51.148;14.068;2023-02-03T07:44:16;98277.50;;;3.91;100.00
52319;BME280;38258;51.148;14.068;2023-02-03T07:46:43;98266.28;;;3.92;100.00
52319;BME280;38258;51.148;14.068;2023-02-03T07:49:10;98256.78;;;3.94;100.00
52319;BME280;38258;51.148;14.068;2023-02-03T07:51:38;98253.34;;;3.92;100.00
52319;BME280;38258;51.148;14.068;2023-02-03T07:54:05;98237.84;;;3.91;100.00
52319;BME280;38258;51.148;14.068;2023-02-03T07:56:32;98225.78;;;3.79;100.00
52319;BME280;38258;51.148;14.068;2023-02-03T07:58:58;98244.75;;;3.92;100.00
52319;BME280;38258;51.148;14.068;2023-02-03T08:01:27;98237.00;;;3.87;100.00
52319;BME280;38258;51.148;14.068;2023-02-03T08:03:53;98233.53;;;3.90;100.00
52319;BME280;38258;51.148;14.068;2023-02-03T08:06:20;98231.81;;;3.89;100.00
52319;BME280;38258;51.148;14.068;2023-02-03T08:08:46;98228.38;;;3.85;100.00
52319;BME280;38258;51.148;14.068;2023-02-03T08:11:13;98223.25;;;3.74;100.00
52319;BME280;38258;51.148;14.068;2023-02-03T08:13:39;98226.63;;;3.86;100.00
52319;BME280;38258;51.148;14.068;2023-02-03T08:16:06;98230.09;;;3.86;100.00
52319;BME280;38258;51.148;14.068;2023-02-03T08:18:34;98224.03;;;3.86;100.00
52319;BME280;38258;51.148;14.068;2023-02-03T08:21:00;98221.50;;;3.78;100.00
52319;BME280;38258;51.148;14.068;2023-02-03T08:23:28;98224.06;;;3.82;100.00
52319;BME280;38258;51.148;14.068;2023-02-03T08:25:55;98227.53;;;3.77;100.00
52319;BME280;38258;51.148;14.068;2023-02-03T08:28:21;98218.06;;;3.76;100.00
52319;BME280;38258;51.148;14.068;2023-02-03T08:30:47;98216.31;;;3.79;100.00
52319;BME280;38258;51.148;14.068;2023-02-03T08:33:14;98202.50;;;3.85;100.00
52319;BME280;38258;51.148;14.068;2023-02-03T08:35:45;98199.88;;;3.87;100.00
52319;BME280;38258;51.148;14.068;2023-02-03T08:38:12;98185.31;;;3.70;100.00
52319;BME280;38258;51.148;14.068;2023-02-03T08:40:39;98204.25;;;3.83;100.00
52319;BME280;38258;51.148;14.068;2023-02-03T08:43:05;98195.59;;;3.82;100.00
52319;BME280;38258;51.148;14.068;2023-02-03T08:45:34;98203.41;;;3.76;100.00
52319;BME280;38258;51.148;14.068;2023-02-03T08:48:00;98182.72;;;3.72;100.00
52319;BME280;38258;51.148;14.068;2023-02-03T08:50:27;98205.09;;;3.82;100.00
52319;BME280;38258;51.148;14.068;2023-02-03T08:52:54;98174.94;;;3.79;100.00
52319;BME280;38258;51.148;14.068;2023-02-03T08:55:21;98135.38;;;3.52;100.00
52319;BME280;38258;51.148;14.068;2023-02-03T08:57:48;98173.19;;;3.83;100.00
52319;BME280;38258;51.148;14.068;2023-02-03T09:00:16;98167.19;;;3.75;100.00
52319;BME280;38258;51.148;14.068;2023-02-03T09:02:42;98171.47;;;3.80;100.00
52319;BME280;38258;51.148;14.068;2023-02-03T09:05:09;98188.72;;;3.80;100.00
52319;BME280;38258;51.148;14.068;2023-02-03T09:07:36;98186.13;;;3.80;100.00
52319;BME280;38258;51.148;14.068;2023-02-03T09:10:05;98175.78;;;3.78;100.00
52319;BME280;38258;51.148;14.068;2023-02-03T09:12:31;98146.56;;;3.61;100.00
52319;BME280;38258;51.148;14.068;2023-02-03T09:14:58;98147.38;;;3.66;100.00
52319;BME280;38258;51.148;14.068;2023-02-03T09:17:24;98145.63;;;3.73;100.00
52319;BME280;38258;51.148;14.068;2023-02-03T09:19:52;98162.84;;;3.83;100.00
52319;BME280;38258;51.148;14.068;2023-02-03T09:22:18;98150.75;;;3.84;100.00
52319;BME280;38258;51.148;14.068;2023-02-03T09:24:45;98149.88;;;3.88;100.00
52319;BME280;38258;51.148;14.068;2023-02-03T09:27:16;98115.50;;;3.62;100.00
52319;BME280;38258;51.148;14.068;2023-02-03T09:29:42;98121.50;;;3.74;100.00
52319;BME280;38258;51.148;14.068;2023-02-03T09:32:09;98137.81;;;3.85;100.00
52319;BME280;38258;51.148;14.068;2023-02-03T09:34:36;98108.56;;;3.75;100.00
52319;BME280;38258;51.148;14.068;2023-02-03T09:37:04;98108.56;;;3.71;100.00
52319;BME280;38258;51.148;14.068;2023-02-03T09:39:30;98115.38;;;3.86;100.00
52319;BME280;38258;51.148;14.068;2023-02-03T09:42:08;98109.34;;;3.84;100.00
52319;BME280;38258;51.148;14.068;2023-02-03T09:44:42;98103.31;;;3.85;100.00
52319;BME280;38258;51.148;14.068;2023-02-03T09:47:14;98099.00;;;3.84;100.00
52319;BME280;38258;51.148;14.068;2023-02-03T09:49:45;98086.91;;;3.87;100.00
52319;BME280;38258;51.148;14.068;2023-02-03T09:52:17;98064.53;;;3.83;100.00
52319;BME280;38258;51.148;14.068;2023-02-03T09:54:51;98069.69;;;3.88;100.00
52319;BME280;38258;51.148;14.068;2023-02-03T09:57:22;98074.81;;;3.89;100.00
52319;BME280;38258;51.148;14.068;2023-02-03T09:59:52;98061.84;;;3.92;100.00
52319;BME280;38258;51.148;14.068;2023-02-03T10:02:31;98079.97;;;3.94;100.00
52319;BME280;38258;51.148;14.068;2023-02-03T10:05:06;98066.19;;;3.92;100.00
52319;BME280;38258;51.148;14.068;2023-02-03T10:07:44;98058.44;;;3.92;100.00
52319;BME280;38258;51.148;14.068;2023-02-03T10:10:19;98054.09;;;3.92;100.00
52319;BME280;38258;51.148;14.068;2023-02-03T10:13:11;98037.72;;;3.90;100.00
52319;BME280;38258;51.148;14.068;2023-02-03T10:15:54;98046.34;;;3.92;100.00
52319;BME280;38258;51.148;14.068;2023-02-03T10:18:27;98045.47;;;3.95;100.00
52319;BME280;38258;51.148;14.068;2023-02-03T10:20:57;98015.34;;;3.88;100.00
52319;BME280;38258;51.148;14.068;2023-02-03T10:23:28;98029.09;;;3.93;100.00
52319;BME280;38258;51.148;14.068;2023-02-03T10:25:58;98008.38;;;3.98;100.00
52319;BME280;38258;51.148;14.068;2023-02-03T10:28:29;97981.72;;;3.85;100.00
52319;BME280;38258;51.148;14.068;2023-02-03T10:30:59;98004.91;;;3.99;100.00
52319;BME280;38258;51.148;14.068;2023-02-03T10:33:27;97996.28;;;3.96;100.00
52319;BME280;38258;51.148;14.068;2023-02-03T10:35:54;97990.25;;;3.96;100.00
52319;BME280;38258;51.148;14.068;2023-02-03T10:38:34;97975.56;;;3.98;100.00
52319;BME280;38258;51.148;14.068;2023-02-03T10:41:05;97978.13;;;4.03;100.00
52319;BME280;38258;51.148;14.068;2023-02-03T10:43:33;97962.66;;;3.96;100.00
52319;BME280;38258;51.148;14.068;2023-02-03T10:46:18;97975.53;;;4.03;100.00
52319;BME280;38258;51.148;14.068;2023-02-03T10:48:45;97954.81;;;4.01;100.00
52319;BME280;38258;51.148;14.068;2023-02-03T10:51:17;97960.81;;;4.08;100.00
52319;BME280;38258;51.148;14.068;2023-02-03T10:53:45;97949.53;;;4.17;100.00
52319;BME280;38258;51.148;14.068;2023-02-03T10:56:14;97930.69;;;4.01;100.00
52319;BME280;38258;51.148;14.068;2023-02-03T10:58:47;97940.91;;;4.15;100.00
52319;BME280;38258;51.148;14.068;2023-02-03T11:01:17;97946.06;;;4.18;100.00
52319;BME280;38258;51.148;14.068;2023-02-03T11:03:54;97946.91;;;4.18;100.00
52319;BME280;38258;51.148;14.068;2023-02-03T11:06:22;97938.22;;;4.22;100.00
52319;BME280;38258;51.148;14.068;2023-02-03T11:08:49;97924.53;;;4.14;100.00
52319;BME280;38258;51.148;14.068;2023-02-03T11:11:20;97926.16;;;4.23;100.00
52319;BME280;38258;51.148;14.068;2023-02-03T11:13:52;97933.94;;;4.24;100.00
52319;BME280;38258;51.148;14.068;2023-02-03T11:16:20;97916.66;;;4.25;100.00
52319;BME280;38258;51.148;14.068;2023-02-03T11:18:54;97911.50;;;4.22;100.00
52319;BME280;38258;51.148;14.068;2023-02-03T11:21:25;97905.53;;;4.14;100.00
52319;BME280;38258;51.148;14.068;2023-02-03T11:24:01;97906.25;;;4.31;100.00
52319;BME280;38258;51.148;14.068;2023-02-03T11:26:33;97907.06;;;4.33;100.00
52319;BME280;38258;51.148;14.068;2023-02-03T11:29:02;97888.00;;;4.42;100.00
52319;BME280;38258;51.148;14.068;2023-02-03T11:31:33;97892.28;;;4.43;100.00
52319;BME280;38258;51.148;14.068;2023-02-03T11:34:02;97897.44;;;4.46;100.00
52319;BME280;38258;51.148;14.068;2023-02-03T11:36:31;97908.66;;;4.45;100.00
52319;BME280;38258;51.148;14.068;2023-02-03T11:39:10;97893.94;;;4.49;100.00
52319;BME280;38258;51.148;14.068;2023-02-03T11:41:38;97892.25;;;4.48;100.00
52319;BME280;38258;51.148;14.068;2023-02-03T11:44:14;97885.22;;;4.59;100.00
52319;BME280;38258;51.148;14.068;2023-02-03T11:46:43;97866.16;;;4.63;100.00
52319;BME280;38258;51.148;14.068;2023-02-03T11:55:22;97805.56;;;4.74;100.00
52319;BME280;38258;51.148;14.068;2023-02-03T11:58:09;97788.16;;;4.80;100.00
52319;BME280;38258;51.148;14.068;2023-02-03T12:00:44;97777.78;;;4.82;100.00
52319;BME280;38258;51.148;14.068;2023-02-03T12:03:29;97769.94;;;4.88;100.00
52319;BME280;38258;51.148;14.068;2023-02-03T12:06:15;97773.38;;;4.90;100.00
52319;BME280;38258;51.148;14.068;2023-02-03T12:08:59;97770.03;;;4.80;100.00
52319;BME280;38258;51.148;14.068;2023-02-03T12:11:39;97779.50;;;4.83;100.00
52319;BME280;38258;51.148;14.068;2023-02-03T12:14:30;97807.94;;;4.89;100.00
52319;BME280;38258;51.148;14.068;2023-02-03T12:17:23;97815.78;;;4.83;100.00
52319;BME280;38258;51.148;14.068;2023-02-03T12:20:05;97808.81;;;4.88;100.00
52319;BME280;38258;51.148;14.068;2023-02-03T12:22:44;97814.84;;;4.90;100.00
52319;BME280;38258;51.148;14.068;2023-02-03T12:25:27;97834.63;;;4.96;100.00
52319;BME280;38258;51.148;14.068;2023-02-03T12:28:04;97807.00;;;4.92;100.00
52319;BME280;38258;51.148;14.068;2023-02-03T12:30:38;97793.28;;;4.88;100.00
52319;BME280;38258;51.148;14.068;2023-02-03T12:33:14;97801.00;;;4.91;100.00
52319;BME280;38258;51.148;14.068;2023-02-03T12:35:47;97796.59;;;4.97;100.00
52319;BME280;38258;51.148;14.068;2023-02-03T12:38:20;97790.69;;;4.85;100.00
52319;BME280;38258;51.148;14.068;2023-02-03T12:40:54;97794.88;;;4.97;100.00
52319;BME280;38258;51.148;14.068;2023-02-03T12:43:29;97772.31;;;5.02;100.00
52319;BME280;38258;51.148;14.068;2023-02-03T12:46:08;97760.88;;;5.14;100.00
52319;BME280;38258;51.148;14.068;2023-02-03T12:48:45;97762.63;;;5.14;100.00
52319;BME280;38258;51.148;14.068;2023-02-03T12:51:18;97755.84;;;5.05;100.00
52319;BME280;38258;51.148;14.068;2023-02-03T12:53:50;97763.53;;;5.11;100.00
52319;BME280;38258;51.148;14.068;2023-02-03T12:56:23;97774.91;;;5.02;100.00
52319;BME280;38258;51.148;14.068;2023-02-03T12:58:55;97801.63;;;5.06;100.00
52319;BME280;38258;51.148;14.068;2023-02-03T13:01:25;97781.84;;;5.00;100.00
52319;BME280;38258;51.148;14.068;2023-02-03T13:03:59;97889.00;;;4.99;100.00
52319;BME280;38258;51.148;14.068;2023-02-03T13:06:37;97934.72;;;3.23;100.00
52319;BME280;38258;51.148;14.068;2023-02-03T13:09:21;97924.66;;;2.67;100.00
52319;BME280;38258;51.148;14.068;2023-02-03T13:11:53;97922.88;;;2.85;100.00